Historique des mesures à Cassis (13260), France
Quotidien Résumé Janvier 3, 2020 Unités:  Métrique/US    US   Métrique
Quotidien Hebdomadaire Mensuel Annuel
  Maximum: Minimum: Moyenne:
Température: 84.6 °F /  29.2 °C 72.5 °F /  22.5 °C 77.9 °F /  25.5 °C
Point de rosée: 60.8 °F /  16 °C 46.9 °F /  8.3 °C 54.9 °F /  12.7 °C
Humidité: 60% 31% 46%
Vitesse du vent: 19.7mph /  31.7km/h - 7.5mph /  12km/h
Rafales: 31.6mph /  50.8km/h - -
Vent- - WSW
Pression: 29.7 in /  1006.6 hPa 29.6 in /  1003.3 hPa -
Précipitations: 0 in /  0.0 mm    
Historical Graphs
 
 
Mesures pour : Janvier 3, 2020
Heure Temperature Point de rosée Pression Vent Vitesse du vent Rafales Humidité Pluie (par heure)
00:11 79.3 °F /  26.3 °C 60.3 °F /  15.7 °C 29.7in /  1006.5hPa North 5.3mph /  8.6km/h 14.1mph /  22.7km/h 52% 0in /  0.0mm
01:11 77.9 °F /  25.5 °C 59.9 °F /  15.5 °C 29.7in /  1006.3hPa NW 4.7mph /  7.6km/h 12.3mph /  19.8km/h 54% 0in /  0.0mm
02:11 76.6 °F /  24.8 °C 60.8 °F /  16 °C 29.7in /  1006.6hPa North 5.8mph /  9.4km/h 11.2mph /  18km/h 58% 0in /  0.0mm
03:11 75.6 °F /  24.2 °C 60.8 °F /  16 °C 29.7in /  1006.1hPa WNW 7mph /  11.2km/h 11.9mph /  19.1km/h 60% 0in /  0.0mm
04:11 75 °F /  23.9 °C 60.3 °F /  15.7 °C 29.7in /  1005.7hPa NNW 5.8mph /  9.4km/h 19.9mph /  32km/h 60% 0in /  0.0mm
05:11 74.8 °F /  23.8 °C 59.5 °F /  15.3 °C 29.7in /  1005.7hPa NNW 6.3mph /  10.1km/h 15.9mph /  25.6km/h 59% 0in /  0.0mm
06:11 74.1 °F /  23.4 °C 58.8 °F /  14.9 °C 29.7in /  1005.8hPa NNW 3.4mph /  5.4km/h 13.4mph /  21.6km/h 59% 0in /  0.0mm
07:11 73.8 °F /  23.2 °C 57.9 °F /  14.4 °C 29.7in /  1006.4hPa NNW 7.1mph /  11.5km/h 10.3mph /  16.6km/h 58% 0in /  0.0mm
08:11 73.8 °F /  23.2 °C 57 °F /  13.9 °C 29.7in /  1006.6hPa WNW 5.3mph /  8.6km/h 10.3mph /  16.6km/h 56% 0in /  0.0mm
09:11 74.5 °F /  23.6 °C 57.2 °F /  14 °C 29.7in /  1006.5hPa NW 3.8mph /  6.1km/h 15.9mph /  25.6km/h 55% 0in /  0.0mm
10:11 76.3 °F /  24.6 °C 57.9 °F /  14.4 °C 29.7in /  1006.0hPa NNW 7.8mph /  12.6km/h 18.8mph /  30.2km/h 53% 0in /  0.0mm
11:11 75.9 °F /  24.4 °C 56.5 °F /  13.6 °C 29.7in /  1005.6hPa NW 10.7mph /  17.3km/h 19.3mph /  31km/h 51% 0in /  0.0mm
12:11 80.8 °F /  27.1 °C 56.1 °F /  13.4 °C 29.7in /  1005.3hPa North 5.3mph /  8.6km/h 23.9mph /  38.5km/h 43% 0in /  0.0mm
13:11 82 °F /  27.8 °C 54.7 °F /  12.6 °C 29.7in /  1005.1hPa North 4.2mph /  6.8km/h 24.4mph /  39.2km/h 39% 0in /  0.0mm
14:11 83.3 °F /  28.5 °C 51.8 °F /  11 °C 29.7in /  1005.0hPa NNW 9.2mph /  14.8km/h 25.3mph /  40.7km/h 34% 0in /  0.0mm
15:11 84 °F /  28.9 °C 53.2 °F /  11.8 °C 29.7in /  1004.5hPa WSW 9.4mph /  15.1km/h 26.2mph /  42.1km/h 35% 0in /  0.0mm
16:11 84.6 °F /  29.2 °C 52.2 °F /  11.2 °C 29.6in /  1003.6hPa WNW 7.6mph /  12.2km/h 19mph /  30.6km/h 33% 0in /  0.0mm
17:11 83.8 °F /  28.8 °C 50.7 °F /  10.4 °C 29.6in /  1003.3hPa NNW 5.8mph /  9.4km/h 23.5mph /  37.8km/h 32% 0in /  0.0mm
18:11 82.9 °F /  28.3 °C 50.7 °F /  10.4 °C 29.6in /  1003.6hPa NW 6.3mph /  10.1km/h 22.1mph /  35.6km/h 33% 0in /  0.0mm
19:11 81.3 °F /  27.4 °C 47.8 °F /  8.8 °C 29.6in /  1003.3hPa North 8.5mph /  13.7km/h 22.8mph /  36.7km/h 31% 0in /  0.0mm
20:11 78.6 °F /  25.9 °C 48.6 °F /  9.2 °C 29.6in /  1003.7hPa NNW 7.4mph /  11.9km/h 22.6mph /  36.4km/h 35% 0in /  0.0mm
21:11 75.6 °F /  24.2 °C 49.6 °F /  9.8 °C 29.7in /  1004.5hPa NW 10.7mph /  17.3km/h 31.6mph /  50.8km/h 40% 0in /  0.0mm
22:11 73.9 °F /  23.3 °C 47.5 °F /  8.6 °C 29.7in /  1005.4hPa WNW 19.7mph /  31.7km/h 30.9mph /  49.7km/h 39% 0in /  0.0mm
23:11 72.5 °F /  22.5 °C 46.9 °F /  8.3 °C 29.7in /  1005.7hPa NW 11.6mph /  18.7km/h 23.1mph /  37.1km/h 40% 0in /  0.0mm
Observations météo à CASSIS
WU-History script by Weather Underground - 2 mb